createdAt,value
2022-09-28T00:02:12.747Z,8.38
2022-09-28T00:04:42.270Z,8.40
2022-09-28T00:07:11.863Z,8.40
2022-09-28T00:09:40.085Z,9.32
2022-09-28T00:12:08.870Z,8.55
2022-09-28T00:14:37.647Z,8.48
2022-09-28T00:17:07.131Z,9.23
2022-09-28T00:19:35.482Z,8.45
2022-09-28T00:22:04.472Z,9.77
2022-09-28T00:24:34.230Z,9.13
2022-09-28T00:27:02.945Z,8.52
2022-09-28T00:29:34.901Z,8.43
2022-09-28T00:32:04.925Z,8.73
2022-09-28T00:34:35.301Z,9.32
2022-09-28T00:37:04.747Z,8.65
2022-09-28T00:39:33.183Z,8.95
2022-09-28T00:42:01.624Z,8.27
2022-09-28T00:44:58.921Z,8.23
2022-09-28T00:47:27.665Z,9.07
2022-09-28T00:50:02.705Z,8.13
2022-09-28T00:52:35.875Z,8.50
2022-09-28T00:55:05.984Z,8.50
2022-09-28T00:57:39.089Z,10.13
2022-09-28T01:00:08.018Z,10.38
2022-09-28T01:02:56.052Z,8.02
2022-09-28T01:05:25.495Z,9.52
2022-09-28T01:07:57.389Z,8.68
2022-09-28T01:10:28.678Z,8.95
2022-09-28T01:12:57.145Z,9.00
2022-09-28T01:15:29.109Z,9.38
2022-09-28T01:18:06.176Z,9.43
2022-09-28T01:20:42.522Z,9.57
2022-09-28T01:23:28.908Z,8.75
2022-09-28T01:26:16.019Z,10.52
2022-09-28T01:28:44.822Z,12.35
2022-09-28T01:31:12.936Z,11.63
2022-09-28T01:33:42.932Z,11.30
2022-09-28T01:36:26.174Z,10.02
2022-09-28T01:39:01.729Z,10.95
2022-09-28T01:41:31.570Z,10.10
2022-09-28T01:44:02.876Z,11.57
2022-09-28T01:46:35.585Z,10.60
2022-09-28T01:49:14.620Z,11.25
2022-09-28T01:51:46.220Z,11.57
2022-09-28T01:54:19.671Z,12.05
2022-09-28T01:56:53.872Z,12.90
2022-09-28T01:59:27.053Z,13.60
2022-09-28T02:01:58.526Z,13.10
2022-09-28T02:04:31.094Z,12.77
2022-09-28T02:07:03.242Z,14.07
2022-09-28T02:09:36.245Z,14.90
2022-09-28T02:12:09.768Z,13.88
2022-09-28T02:14:40.973Z,15.05
2022-09-28T02:17:10.377Z,17.52
2022-09-28T02:19:41.296Z,16.55
2022-09-28T02:22:26.536Z,15.50
2022-09-28T02:25:00.232Z,15.80
2022-09-28T02:27:31.746Z,15.93
2022-09-28T02:30:00.437Z,16.20
2022-09-28T02:32:32.738Z,18.08
2022-09-28T02:35:02.233Z,17.13
2022-09-28T02:37:32.682Z,18.17
2022-09-28T02:40:01.573Z,17.25
2022-09-28T02:42:39.389Z,16.92
2022-09-28T02:45:11.839Z,18.27
2022-09-28T02:47:48.313Z,18.95
2022-09-28T02:50:31.020Z,16.60
2022-09-28T02:53:17.989Z,17.80
2022-09-28T02:56:04.805Z,17.83
2022-09-28T02:58:39.043Z,18.90
2022-09-28T03:01:27.647Z,17.40
2022-09-28T03:04:02.151Z,18.15
2022-09-28T03:06:53.576Z,16.60
2022-09-28T03:09:24.247Z,16.88
2022-09-28T03:12:01.954Z,18.55
2022-09-28T03:14:31.187Z,17.67
2022-09-28T03:17:00.972Z,17.27
2022-09-28T03:19:36.709Z,19.33
2022-09-28T03:22:06.277Z,16.48
2022-09-28T03:24:35.154Z,17.13
2022-09-28T03:27:03.964Z,16.35
2022-09-28T03:29:34.430Z,17.83
2022-09-28T03:32:06.558Z,18.75
2022-09-28T03:34:35.594Z,17.77
2022-09-28T03:37:05.015Z,17.65
2022-09-28T03:39:33.916Z,17.63
2022-09-28T03:42:02.976Z,17.90
2022-09-28T03:44:34.976Z,18.10
2022-09-28T03:47:04.126Z,18.63
2022-09-28T03:49:33.142Z,18.65
2022-09-28T03:52:03.080Z,19.20
2022-09-28T03:54:32.379Z,19.55
2022-09-28T03:57:01.485Z,20.65
2022-09-28T03:59:31.976Z,21.55
2022-09-28T04:02:00.855Z,21.25
2022-09-28T04:04:33.955Z,22.95
2022-09-28T04:07:04.443Z,23.45
2022-09-28T04:09:36.112Z,23.70
2022-09-28T04:12:07.281Z,21.80
2022-09-28T04:14:41.652Z,23.70
2022-09-28T04:17:11.856Z,25.08
2022-09-28T04:19:42.682Z,23.65
2022-09-28T04:22:38.251Z,24.10
2022-09-28T04:25:07.497Z,25.17
2022-09-28T04:27:55.821Z,24.55
2022-09-28T04:30:24.675Z,24.85
2022-09-28T04:33:13.312Z,26.50
2022-09-28T04:35:44.984Z,26.63
2022-09-28T04:38:14.940Z,27.38
2022-09-28T04:40:43.843Z,26.30
2022-09-28T04:43:15.232Z,26.85
2022-09-28T04:45:45.138Z,28.83
2022-09-28T04:48:14.969Z,26.10
2022-09-28T04:51:04.088Z,27.58
2022-09-28T04:53:35.117Z,28.92
2022-09-28T04:56:07.867Z,27.08
2022-09-28T04:58:39.161Z,29.17
2022-09-28T05:01:09.416Z,29.95
2022-09-28T05:03:56.462Z,27.10
2022-09-28T05:06:37.232Z,29.77
2022-09-28T05:09:09.354Z,29.40
2022-09-28T05:11:38.053Z,28.25
2022-09-28T05:14:12.801Z,25.85
2022-09-28T05:16:42.758Z,27.05
2022-09-28T05:19:36.990Z,27.10
2022-09-28T05:22:11.308Z,28.88
2022-09-28T05:24:43.313Z,27.48
2022-09-28T05:27:12.057Z,28.05
2022-09-28T05:29:40.441Z,28.92
2022-09-28T05:33:06.625Z,26.80
2022-09-28T05:35:44.271Z,28.92
2022-09-28T05:38:13.299Z,26.88
2022-09-28T05:40:42.693Z,28.35
2022-09-28T05:43:12.669Z,28.63
2022-09-28T05:45:41.264Z,29.48
2022-09-28T05:48:10.846Z,27.80
2022-09-28T05:50:43.528Z,29.52
2022-09-28T05:53:16.547Z,29.25
2022-09-28T05:55:45.532Z,30.77
2022-09-28T05:58:16.620Z,28.52
2022-09-28T06:00:45.171Z,28.17
2022-09-28T06:03:22.483Z,28.73
2022-09-28T06:05:51.068Z,28.27
2022-09-28T06:08:19.965Z,27.83
2022-09-28T06:10:59.824Z,28.02
2022-09-28T06:13:30.051Z,27.42
2022-09-28T06:15:59.580Z,25.95
2022-09-28T06:18:31.732Z,27.30
2022-09-28T06:21:16.321Z,25.55
2022-09-28T06:23:49.332Z,26.63
2022-09-28T06:26:19.762Z,26.23
2022-09-28T06:28:48.460Z,26.30
2022-09-28T06:31:19.863Z,24.55
2022-09-28T06:33:51.819Z,17.50
2022-09-28T06:36:21.004Z,24.48
2022-09-28T06:38:51.208Z,26.90
2022-09-28T06:41:21.773Z,25.13
2022-09-28T06:43:50.156Z,25.50
2022-09-28T06:46:39.285Z,24.35
2022-09-28T06:49:30.247Z,22.70
2022-09-28T06:52:19.903Z,22.63
2022-09-28T06:55:15.116Z,22.88
2022-09-28T06:57:47.887Z,24.38
2022-09-28T07:00:19.181Z,22.33
2022-09-28T07:03:09.261Z,23.45
2022-09-28T07:05:57.761Z,23.85
2022-09-28T07:09:27.758Z,23.17
2022-09-28T07:12:23.141Z,24.30
2022-09-28T07:15:07.246Z,24.17
2022-09-28T07:17:56.348Z,22.88
2022-09-28T07:20:29.996Z,23.50
2022-09-28T07:23:17.182Z,22.42
2022-09-28T07:26:09.186Z,21.40
2022-09-28T07:28:51.272Z,22.13
2022-09-28T07:31:37.424Z,21.48
2022-09-28T07:34:24.591Z,22.95
2022-09-28T07:37:09.873Z,22.80
2022-09-28T07:39:53.215Z,23.05
2022-09-28T07:44:52.719Z,21.23
2022-09-28T07:47:30.849Z,21.42
2022-09-28T07:50:21.238Z,21.95
2022-09-28T07:53:11.120Z,23.52
2022-09-28T07:56:13.952Z,21.17
2022-09-28T07:58:50.406Z,19.65
2022-09-28T08:01:38.246Z,21.65
2022-09-28T08:04:07.131Z,19.95
2022-09-28T08:06:40.407Z,19.40
2022-09-28T08:09:11.355Z,20.75
2022-09-28T08:11:59.578Z,19.45
2022-09-28T08:18:01.978Z,19.53
2022-09-28T08:20:52.924Z,19.65
2022-09-28T08:23:24.750Z,19.55
2022-09-28T08:25:54.958Z,21.25
2022-09-28T08:28:26.474Z,21.33
2022-09-28T08:31:00.578Z,21.10
2022-09-28T08:34:01.040Z,19.20
2022-09-28T08:36:48.537Z,19.75
2022-09-28T08:39:56.075Z,20.67
2022-09-28T08:42:56.194Z,20.83
2022-09-28T08:45:44.893Z,20.60
2022-09-28T08:49:01.263Z,19.67
2022-09-28T08:52:14.838Z,19.08
2022-09-28T08:55:45.214Z,18.95
2022-09-28T08:58:43.617Z,19.58
2022-09-28T09:01:16.660Z,19.35
2022-09-28T09:03:49.599Z,17.48
2022-09-28T09:06:37.156Z,19.73
2022-09-28T09:09:34.557Z,19.05
2022-09-28T09:12:02.501Z,19.92
2022-09-28T09:14:40.059Z,19.35
2022-09-28T09:17:18.481Z,17.73
2022-09-28T09:20:21.647Z,17.63
2022-09-28T09:23:08.925Z,22.52
2022-09-28T09:25:47.968Z,22.70
2022-09-28T09:28:22.158Z,20.23
2022-09-28T09:31:22.422Z,19.02
2022-09-28T09:33:52.154Z,18.10
2022-09-28T09:37:05.013Z,20.95
2022-09-28T09:40:18.024Z,21.88
2022-09-28T09:43:17.347Z,19.83
2022-09-28T09:45:57.276Z,21.10
2022-09-28T09:48:49.856Z,21.77
2022-09-28T09:51:36.820Z,21.45
2022-09-28T09:54:07.293Z,22.33
2022-09-28T09:56:39.078Z,20.80
2022-09-28T09:59:24.038Z,22.08
2022-09-28T10:02:26.244Z,19.88
2022-09-28T10:05:13.766Z,19.38
2022-09-28T10:07:52.979Z,18.80
2022-09-28T10:10:29.148Z,18.10
2022-09-28T10:13:16.680Z,17.75
2022-09-28T10:15:47.556Z,17.17
2022-09-28T10:18:37.633Z,17.38
2022-09-28T10:21:24.761Z,16.80
2022-09-28T10:24:02.611Z,16.85
2022-09-28T10:26:38.266Z,17.45
2022-09-28T10:29:22.760Z,15.80
2022-09-28T10:31:58.513Z,15.40
2022-09-28T10:34:33.336Z,16.60
2022-09-28T10:37:10.887Z,16.70
2022-09-28T10:40:04.496Z,14.77
2022-09-28T10:42:37.606Z,16.30
2022-09-28T10:45:13.802Z,16.00
2022-09-28T10:47:45.440Z,16.27
2022-09-28T10:50:21.414Z,16.80
2022-09-28T10:52:52.072Z,15.45
2022-09-28T10:56:00.532Z,16.45
2022-09-28T10:58:32.585Z,16.58
2022-09-28T11:01:12.287Z,16.55
2022-09-28T11:03:52.980Z,17.63
2022-09-28T11:06:25.998Z,17.08
2022-09-28T11:09:04.945Z,17.58
2022-09-28T11:11:41.612Z,16.77
2022-09-28T11:14:22.399Z,16.58
2022-09-28T11:17:10.686Z,16.40
2022-09-28T11:19:39.986Z,16.55
2022-09-28T11:22:36.812Z,14.52
2022-09-28T11:25:17.250Z,14.50
2022-09-28T11:27:51.912Z,12.27
2022-09-28T11:30:32.902Z,11.93
2022-09-28T11:33:24.996Z,10.45
2022-09-28T11:36:17.005Z,9.95
2022-09-28T11:38:47.357Z,8.85
2022-09-28T11:42:01.740Z,9.32
2022-09-28T11:44:41.306Z,8.85
2022-09-28T11:47:33.512Z,8.05
2022-09-28T11:50:04.253Z,8.75
2022-09-28T11:52:51.575Z,9.13
2022-09-28T11:55:22.872Z,9.32
2022-09-28T11:57:58.454Z,8.88
2022-09-28T12:00:28.349Z,7.97
2022-09-28T12:03:29.475Z,8.15
2022-09-28T12:06:01.812Z,7.18
2022-09-28T12:08:32.808Z,6.88
2022-09-28T12:11:04.033Z,8.13
2022-09-28T12:14:00.906Z,7.93
2022-09-28T12:17:04.263Z,7.25
2022-09-28T12:19:33.162Z,7.40
2022-09-28T12:22:06.211Z,7.40
2022-09-28T12:24:38.796Z,7.57
2022-09-28T12:27:12.414Z,7.32
2022-09-28T12:29:47.468Z,6.40
2022-09-28T12:32:37.390Z,6.88
2022-09-28T12:35:12.915Z,6.82
2022-09-28T12:37:41.680Z,6.93
2022-09-28T12:40:26.907Z,6.60
2022-09-28T12:43:07.238Z,6.50
2022-09-28T12:46:06.686Z,5.95
2022-09-28T12:48:41.265Z,7.57
2022-09-28T12:51:37.039Z,6.47
2022-09-28T12:54:05.000Z,7.15
2022-09-28T12:56:53.636Z,7.15
2022-09-28T12:59:32.964Z,7.38
2022-09-28T13:02:01.325Z,6.63
2022-09-28T13:04:46.346Z,6.80
2022-09-28T13:07:29.420Z,6.80
2022-09-28T13:10:07.126Z,6.35
2022-09-28T13:12:49.400Z,6.20
2022-09-28T13:15:24.713Z,7.82
2022-09-28T13:18:04.047Z,6.35
2022-09-28T13:20:46.641Z,6.25
2022-09-28T13:23:18.532Z,6.72
2022-09-28T13:25:57.564Z,5.55
2022-09-28T13:28:27.402Z,5.07
2022-09-28T13:30:57.033Z,5.70
2022-09-28T13:33:36.658Z,4.75
2022-09-28T13:36:24.922Z,5.72
2022-09-28T13:38:53.944Z,5.50
2022-09-28T13:41:23.373Z,5.45
2022-09-28T13:43:52.891Z,6.00
2022-09-28T13:46:39.644Z,5.82
2022-09-28T13:49:18.385Z,7.82
2022-09-28T13:52:05.075Z,8.45
2022-09-28T13:54:41.807Z,9.98
2022-09-28T13:57:25.346Z,9.07
2022-09-28T13:59:53.501Z,8.40
2022-09-28T14:02:29.947Z,8.27
2022-09-28T14:05:00.019Z,7.85
2022-09-28T14:10:20.808Z,7.95
2022-09-28T14:12:50.250Z,7.88
2022-09-28T14:15:30.645Z,6.93
2022-09-28T14:18:10.703Z,7.10
2022-09-28T14:20:38.807Z,7.63
2022-09-28T14:23:13.068Z,8.32
2022-09-28T14:25:45.874Z,6.00
2022-09-28T14:28:23.173Z,6.15
2022-09-28T14:30:53.279Z,5.05
2022-09-28T14:33:21.300Z,6.57
2022-09-28T14:35:57.452Z,5.53
2022-09-28T14:38:47.222Z,6.20
2022-09-28T14:41:28.239Z,6.35
2022-09-28T14:43:59.165Z,6.60
2022-09-28T14:46:30.505Z,6.03
2022-09-28T14:49:03.878Z,10.48
2022-09-28T14:51:33.803Z,9.77
2022-09-28T14:54:11.017Z,9.68
2022-09-28T14:56:59.645Z,7.65
2022-09-28T14:59:36.107Z,6.85
2022-09-28T15:02:28.941Z,7.30
2022-09-28T15:05:01.564Z,7.45
2022-09-28T15:07:49.489Z,8.13
2022-09-28T15:10:27.875Z,8.52
2022-09-28T15:12:58.108Z,4.65
2022-09-28T15:15:38.518Z,3.25
2022-09-28T15:18:07.700Z,2.95
2022-09-28T15:20:41.596Z,3.15
2022-09-28T15:23:24.725Z,4.03
2022-09-28T15:25:53.487Z,4.95
2022-09-28T15:28:24.472Z,5.30
2022-09-28T15:31:04.504Z,6.10
2022-09-28T15:33:59.256Z,6.50
2022-09-28T15:36:32.815Z,7.20
2022-09-28T15:39:07.499Z,11.30
2022-09-28T15:41:36.116Z,12.95
2022-09-28T15:44:18.453Z,10.90
2022-09-28T15:46:48.765Z,10.73
2022-09-28T15:49:38.963Z,10.95
2022-09-28T15:52:07.615Z,9.35
2022-09-28T15:54:44.325Z,8.07
2022-09-28T15:57:34.217Z,7.10
2022-09-28T16:00:02.986Z,4.40
2022-09-28T16:03:05.565Z,2.88
2022-09-28T16:05:54.190Z,3.53
2022-09-28T16:08:24.917Z,3.88
2022-09-28T16:10:57.966Z,3.33
2022-09-28T16:13:26.497Z,2.65
2022-09-28T16:15:58.097Z,2.85
2022-09-28T16:18:28.593Z,3.88
2022-09-28T16:21:24.389Z,6.47
2022-09-28T16:23:55.654Z,7.07
2022-09-28T16:26:33.098Z,3.20
2022-09-28T16:29:07.669Z,3.20
2022-09-28T16:31:36.780Z,3.45
2022-09-28T16:34:11.425Z,3.60
2022-09-28T16:36:43.380Z,3.60
2022-09-28T16:39:12.418Z,3.15
2022-09-28T16:41:44.125Z,4.30
2022-09-28T16:44:25.784Z,4.72
2022-09-28T16:47:00.184Z,4.78
2022-09-28T16:49:40.253Z,4.97
2022-09-28T16:52:35.217Z,4.70
2022-09-28T16:55:40.531Z,4.40
2022-09-28T16:58:06.630Z,4.95
2022-09-28T17:00:34.900Z,4.13
2022-09-28T17:03:23.510Z,5.18
2022-09-28T17:05:52.764Z,4.68
2022-09-28T17:08:22.909Z,4.22
2022-09-28T17:13:45.104Z,5.43
2022-09-28T17:16:17.785Z,25.67
2022-09-28T17:18:46.904Z,6.60
2022-09-28T17:21:18.638Z,6.25
2022-09-28T17:23:50.304Z,6.30
2022-09-28T17:26:27.235Z,5.68
2022-09-28T17:28:55.988Z,5.10
2022-09-28T17:31:24.384Z,7.10
2022-09-28T17:33:54.459Z,3.92
2022-09-28T17:36:26.937Z,4.68
2022-09-28T17:38:58.372Z,4.20
2022-09-28T17:41:31.271Z,3.90
2022-09-28T17:44:00.691Z,8.23
2022-09-28T17:46:35.477Z,5.28
2022-09-28T17:49:05.906Z,5.35
2022-09-28T17:51:38.225Z,4.55
2022-09-28T17:54:07.994Z,4.72
2022-09-28T17:56:38.465Z,5.53
2022-09-28T17:59:08.328Z,7.47
2022-09-28T18:01:42.185Z,9.15
2022-09-28T18:04:33.318Z,8.10
2022-09-28T18:07:03.780Z,6.05
2022-09-28T18:09:32.552Z,6.30
2022-09-28T18:12:05.524Z,8.05
2022-09-28T18:17:05.424Z,9.82
2022-09-28T18:19:35.961Z,9.40
2022-09-28T18:22:05.443Z,8.45
2022-09-28T18:24:38.097Z,8.05
2022-09-28T18:27:07.055Z,10.30
2022-09-28T18:29:35.816Z,8.98
2022-09-28T18:32:05.218Z,7.95
2022-09-28T18:34:38.288Z,5.47
2022-09-28T18:37:07.107Z,4.60
2022-09-28T18:39:36.244Z,4.32
2022-09-28T18:42:04.975Z,4.50
2022-09-28T18:44:35.030Z,3.80
2022-09-28T18:47:03.652Z,3.95
2022-09-28T18:49:33.607Z,4.22
2022-09-28T18:52:03.507Z,4.15
2022-09-28T18:54:41.537Z,4.50
2022-09-28T18:57:11.623Z,3.70
2022-09-28T18:59:41.736Z,3.88
2022-09-28T19:02:11.630Z,3.97
2022-09-28T19:04:42.775Z,3.60
2022-09-28T19:07:12.733Z,4.32
2022-09-28T19:09:44.095Z,4.97
2022-09-28T19:12:13.487Z,3.65
2022-09-28T19:14:43.310Z,4.50
2022-09-28T19:17:13.750Z,5.07
2022-09-28T19:19:43.168Z,5.53
2022-09-28T19:22:13.209Z,7.28
2022-09-28T19:24:42.737Z,6.45
2022-09-28T19:27:11.565Z,7.28
2022-09-28T19:29:40.402Z,8.68
2022-09-28T19:32:09.190Z,8.65
2022-09-28T19:34:39.738Z,9.70
2022-09-28T19:37:08.713Z,10.32
2022-09-28T19:39:38.865Z,10.73
2022-09-28T19:42:10.376Z,11.32
2022-09-28T19:44:39.930Z,12.15
2022-09-28T19:47:11.527Z,12.35
2022-09-28T19:49:41.370Z,12.10
2022-09-28T19:52:15.639Z,12.35
2022-09-28T19:54:46.123Z,11.85
2022-09-28T19:57:15.974Z,12.15
2022-09-28T19:59:50.664Z,14.15
2022-09-28T20:02:22.020Z,12.65
2022-09-28T20:04:51.393Z,13.40
2022-09-28T20:07:19.814Z,13.38
2022-09-28T20:09:48.309Z,12.60
2022-09-28T20:12:17.756Z,13.98
2022-09-28T20:14:47.461Z,13.23
2022-09-28T20:17:15.938Z,12.30
2022-09-28T20:19:44.849Z,13.43
2022-09-28T20:22:13.469Z,13.32
2022-09-28T20:24:42.429Z,12.65
2022-09-28T20:27:11.179Z,13.63
2022-09-28T20:29:39.592Z,14.77
2022-09-28T20:32:09.133Z,13.88
2022-09-28T20:34:39.043Z,15.10
2022-09-28T20:37:08.628Z,15.10
2022-09-28T20:39:40.414Z,15.35
2022-09-28T20:42:14.283Z,15.02
2022-09-28T20:44:44.360Z,15.63
2022-09-28T20:47:16.156Z,15.90
2022-09-28T20:49:47.494Z,14.98
2022-09-28T20:52:17.166Z,15.20
2022-09-28T20:54:46.207Z,16.17
2022-09-28T20:57:19.994Z,16.85
2022-09-28T20:59:53.772Z,16.52
2022-09-28T21:02:24.115Z,16.08
2022-09-28T21:04:55.234Z,17.85
2022-09-28T21:07:24.431Z,16.83
2022-09-28T21:09:53.570Z,17.48
2022-09-28T21:12:25.922Z,16.60
2022-09-28T21:14:58.806Z,17.85
2022-09-28T21:17:33.005Z,17.02
2022-09-28T21:20:02.429Z,17.30
2022-09-28T21:22:49.892Z,18.45
2022-09-28T21:25:19.029Z,18.73
2022-09-28T21:27:47.992Z,17.52
2022-09-28T21:30:19.936Z,19.05
2022-09-28T21:33:07.465Z,16.80
2022-09-28T21:35:38.904Z,17.58
2022-09-28T21:38:09.052Z,16.73
2022-09-28T21:40:39.351Z,17.95
2022-09-28T21:43:13.240Z,17.08
2022-09-28T21:45:41.653Z,18.95
2022-09-28T21:48:14.660Z,18.30
2022-09-28T21:50:42.973Z,16.15
2022-09-28T21:53:14.372Z,16.88
2022-09-28T21:55:45.769Z,16.10
2022-09-28T21:58:14.988Z,17.00
2022-09-28T22:00:44.485Z,17.50
2022-09-28T22:03:31.308Z,17.80
2022-09-28T22:06:00.795Z,16.98
2022-09-28T22:08:36.582Z,18.00
2022-09-28T22:11:07.669Z,15.60
2022-09-28T22:13:37.930Z,16.80
2022-09-28T22:16:08.234Z,17.70
2022-09-28T22:18:40.807Z,16.25
2022-09-28T22:21:11.583Z,17.63
2022-09-28T22:23:42.059Z,16.38
2022-09-28T22:26:17.974Z,17.08
2022-09-28T22:28:49.543Z,16.65
2022-09-28T22:31:20.022Z,16.95
2022-09-28T22:33:50.638Z,17.17
2022-09-28T22:36:19.876Z,17.92
2022-09-28T22:38:48.849Z,17.40
2022-09-28T22:41:20.416Z,17.75
2022-09-28T22:43:51.257Z,16.02
2022-09-28T22:46:22.497Z,16.98
2022-09-28T22:48:52.549Z,17.42
2022-09-28T22:51:23.791Z,16.10
2022-09-28T22:53:54.564Z,16.65
2022-09-28T22:56:23.129Z,16.83
2022-09-28T22:58:51.977Z,15.15
2022-09-28T23:01:22.914Z,16.92
2022-09-28T23:03:55.611Z,17.10
2022-09-28T23:06:25.896Z,15.35
2022-09-28T23:08:54.380Z,16.75
2022-09-28T23:11:23.407Z,16.80
2022-09-28T23:13:52.506Z,16.90
2022-09-28T23:16:26.506Z,16.30
2022-09-28T23:18:56.298Z,16.25
2022-09-28T23:21:26.636Z,16.30
2022-09-28T23:23:59.512Z,15.25
2022-09-28T23:26:29.631Z,16.05
2022-09-28T23:28:59.997Z,15.73
2022-09-28T23:31:30.921Z,15.57
2022-09-28T23:34:03.178Z,14.82
2022-09-28T23:36:33.334Z,16.42
2022-09-28T23:39:02.677Z,15.45
2022-09-28T23:41:33.330Z,16.08
2022-09-28T23:44:03.434Z,17.23
2022-09-28T23:46:34.565Z,14.73
2022-09-28T23:49:03.968Z,16.02
2022-09-28T23:51:33.977Z,15.73
2022-09-28T23:54:05.112Z,15.00
2022-09-28T23:56:35.897Z,14.00
2022-09-28T23:59:04.933Z,16.02
